Amelia Island, Florida
Current Conditions -  °F | °C
As of 12:15 PM on Sunday 23 Nov 2014 (Local Time) from KFHB Reporting Station
Overcast Overcast  
Wind Chill: 26°   Ceiling: 1600
Heat Index: 28°   Visibility: 4mi
Dew Point: 23°   Wind: 3mph
Humidity: 83%   Direction: 130°SE
Pressure: 29.94"   Gusts: NA
Location:  30.6056°N, 81.5268°W
Report Text: KFHB 231715Z AUTO 13003KT 4SM BKN016 OVC021 26/23 A2994 RMK AO1
Loading
Personal Weather Stations






























Interactive Weather Map New forecast layout! Learn more

10-Day Weather Forecast

Advertisements
Track Severe Weather on mobile